Terminal Aerodrome Forecast
Issued by NWS Albany, NY

Home | Current Version | Previous Version | Text Only | Print | Product List | Glossary On
Versions: 1 2 3 4 5 6 7 8 9 10 11 12 13 14 15 16 17 18 19 20
000
FTUS41 KALY 020532
TAFALB
TAF
KALB 020532Z 0206/0306 18007KT 2SM -SN BR SCT009 BKN025 OVC040
      TEMPO 0206/0208 4SM -SN BR BKN009 OVC025
     FM020800 20007KT P6SM VCSH SCT025 OVC035
      TEMPO 0208/0210 4SM -SHSN BR BKN025 OVC035
     FM021200 28010KT P6SM BKN025 OVC035
     FM021500 29015G25KT P6SM OVC040
     FM021800 29019G29KT P6SM BKN050
     FM030100 31009KT P6SM SCT050=

USA.gov is the U.S. government's official web portal to all federal, state and local government web resources and services.